createdAt,value
2023-04-04T00:00:09.901Z,285
2023-04-04T00:00:35.957Z,281
2023-04-04T00:00:57.552Z,278
2023-04-04T00:01:28.528Z,278
2023-04-04T00:02:00.465Z,277
2023-04-04T00:02:32.554Z,275
2023-04-04T00:03:04.798Z,273
2023-04-04T00:03:37.001Z,272
2023-04-04T00:04:08.704Z,270
2023-04-04T00:04:35.905Z,180
2023-04-04T00:04:56.682Z,180
2023-04-04T00:05:29.046Z,180
2023-04-04T00:06:00.487Z,180
2023-04-04T00:06:32.708Z,180
2023-04-04T00:07:04.613Z,180
2023-04-04T00:07:36.895Z,180
2023-04-04T00:08:08.928Z,180
2023-04-04T00:08:36.351Z,180
2023-04-04T00:08:56.823Z,271
2023-04-04T00:09:28.548Z,274
2023-04-04T00:10:01.004Z,277
2023-04-04T00:10:32.568Z,280
2023-04-04T00:11:04.832Z,282
2023-04-04T00:11:36.883Z,283
2023-04-04T00:12:08.631Z,285
2023-04-04T00:12:35.878Z,287
2023-04-04T00:12:56.810Z,289
2023-04-04T00:13:28.593Z,290
2023-04-04T00:14:00.544Z,292
2023-04-04T00:14:32.729Z,293
2023-04-04T00:15:06.538Z,295
2023-04-04T00:15:36.974Z,296
2023-04-04T00:16:08.815Z,298
2023-04-04T00:16:35.928Z,299
2023-04-04T00:16:56.752Z,301
2023-04-04T00:17:28.791Z,300
2023-04-04T00:18:00.650Z,298
2023-04-04T00:18:32.554Z,297
2023-04-04T00:19:04.830Z,295
2023-04-04T00:19:36.857Z,294
2023-04-04T00:20:09.119Z,293
2023-04-04T00:20:35.896Z,292
2023-04-04T00:20:57.163Z,294
2023-04-04T00:21:28.534Z,297
2023-04-04T00:22:00.514Z,299
2023-04-04T00:22:32.535Z,302
2023-04-04T00:23:04.699Z,304
2023-04-04T00:23:37.216Z,308
2023-04-04T00:24:08.723Z,313
2023-04-04T00:24:36.294Z,317
2023-04-04T00:24:56.750Z,322
2023-04-04T00:25:29.097Z,326
2023-04-04T00:26:00.577Z,330
2023-04-04T00:26:34.262Z,334
2023-04-04T00:27:04.656Z,338
2023-04-04T00:27:36.944Z,341
2023-04-04T00:28:09.389Z,345
2023-04-04T00:28:35.858Z,348
2023-04-04T00:28:56.824Z,351
2023-04-04T00:29:28.637Z,354
2023-04-04T00:30:01.843Z,356
2023-04-04T00:30:32.811Z,359
2023-04-04T00:31:04.721Z,1
2023-04-04T00:31:37.001Z,2
2023-04-04T00:32:09.089Z,3
2023-04-04T00:32:36.165Z,5
2023-04-04T00:32:56.909Z,5
2023-04-04T00:33:28.671Z,5
2023-04-04T00:34:00.617Z,5
2023-04-04T00:34:32.669Z,5
2023-04-04T00:35:06.002Z,6
2023-04-04T00:35:36.965Z,6
2023-04-04T00:36:08.759Z,7
2023-04-04T00:36:36.861Z,7
2023-04-04T00:36:56.787Z,8
2023-04-04T00:37:28.709Z,9
2023-04-04T00:38:00.955Z,10
2023-04-04T00:38:32.998Z,10
2023-04-04T00:39:04.774Z,9
2023-04-04T00:39:36.910Z,9
2023-04-04T00:40:09.380Z,6
2023-04-04T00:40:35.901Z,4
2023-04-04T00:40:57.179Z,3
2023-04-04T00:41:28.786Z,3
2023-04-04T00:42:00.554Z,3
2023-04-04T00:42:33.446Z,4
2023-04-04T00:43:04.856Z,5
2023-04-04T00:43:36.923Z,6
2023-04-04T00:44:08.697Z,8
2023-04-04T00:44:35.952Z,9
2023-04-04T00:44:56.776Z,9
2023-04-04T00:45:29.984Z,10
2023-04-04T00:46:00.697Z,11
2023-04-04T00:46:32.592Z,13
2023-04-04T00:47:04.607Z,13
2023-04-04T00:47:36.915Z,14
2023-04-04T00:48:08.756Z,14
2023-04-04T00:48:35.855Z,15
2023-04-04T00:48:57.086Z,16
2023-04-04T00:49:28.672Z,18
2023-04-04T00:50:01.122Z,21
2023-04-04T00:50:33.111Z,25
2023-04-04T00:51:04.846Z,26
2023-04-04T00:51:37.020Z,27
2023-04-04T00:52:09.610Z,28
2023-04-04T00:52:36.645Z,28
2023-04-04T00:52:56.853Z,29
2023-04-04T00:53:28.598Z,29
2023-04-04T00:54:00.627Z,29
2023-04-04T00:54:32.878Z,30
2023-04-04T00:55:05.866Z,30
2023-04-04T00:55:36.791Z,30
2023-04-04T00:56:08.702Z,31
2023-04-04T00:56:35.918Z,30
2023-04-04T00:56:56.715Z,30
2023-04-04T00:57:28.782Z,30
2023-04-04T00:58:00.586Z,31
2023-04-04T00:58:32.622Z,32
2023-04-04T00:59:04.742Z,32
2023-04-04T00:59:37.011Z,32
2023-04-04T01:00:09.757Z,33
2023-04-04T01:00:36.402Z,33
2023-04-04T01:00:57.265Z,35
2023-04-04T01:02:00.776Z,36
2023-04-04T01:02:32.666Z,37
2023-04-04T01:03:05.003Z,37
2023-04-04T01:03:37.381Z,38
2023-04-04T01:04:08.980Z,38
2023-04-04T01:04:37.459Z,39
2023-04-04T01:04:56.987Z,39
2023-04-04T01:05:28.956Z,38
2023-04-04T01:06:00.533Z,38
2023-04-04T01:06:32.543Z,38
2023-04-04T01:07:04.866Z,38
2023-04-04T01:07:37.431Z,40
2023-04-04T01:08:08.897Z,41
2023-04-04T01:08:35.890Z,42
2023-04-04T01:08:56.792Z,42
2023-04-04T01:09:28.703Z,43
2023-04-04T01:10:01.191Z,44
2023-04-04T01:10:32.694Z,45
2023-04-04T01:11:04.762Z,45
2023-04-04T01:11:36.976Z,44
2023-04-04T01:12:08.747Z,44
2023-04-04T01:12:36.772Z,44
2023-04-04T01:12:56.816Z,45
2023-04-04T01:13:28.621Z,46
2023-04-04T01:14:00.630Z,47
2023-04-04T01:14:32.571Z,49
2023-04-04T01:15:06.618Z,49
2023-04-04T01:15:36.984Z,49
2023-04-04T01:16:08.775Z,51
2023-04-04T01:16:36.006Z,51
2023-04-04T01:16:56.907Z,52
2023-04-04T01:17:28.634Z,51
2023-04-04T01:18:00.773Z,50
2023-04-04T01:18:32.559Z,49
2023-04-04T01:19:04.779Z,49
2023-04-04T01:19:37.104Z,50
2023-04-04T01:20:09.401Z,49
2023-04-04T01:20:35.926Z,48
2023-04-04T01:20:57.147Z,47
2023-04-04T01:21:28.645Z,47
2023-04-04T01:22:00.663Z,48
2023-04-04T01:22:32.673Z,48
2023-04-04T01:23:04.880Z,47
2023-04-04T01:23:36.823Z,47
2023-04-04T01:24:08.885Z,47
2023-04-04T01:24:36.007Z,44
2023-04-04T01:24:57.219Z,45
2023-04-04T01:25:29.026Z,46
2023-04-04T01:26:00.779Z,45
2023-04-04T01:26:32.543Z,45
2023-04-04T01:27:04.850Z,44
2023-04-04T01:27:37.332Z,44
2023-04-04T01:28:08.740Z,44
2023-04-04T01:28:35.873Z,45
2023-04-04T01:28:56.809Z,46
2023-04-04T01:29:28.647Z,45
2023-04-04T01:30:02.165Z,45
2023-04-04T01:30:33.204Z,45
2023-04-04T01:31:04.998Z,45
2023-04-04T01:31:36.982Z,45
2023-04-04T01:32:08.859Z,46
2023-04-04T01:32:35.976Z,46
2023-04-04T01:32:56.908Z,47
2023-04-04T01:33:28.651Z,48
2023-04-04T01:34:00.660Z,48
2023-04-04T01:34:32.904Z,48
2023-04-04T01:35:05.905Z,48
2023-04-04T01:35:38.202Z,48
2023-04-04T01:36:08.731Z,49
2023-04-04T01:36:35.812Z,48
2023-04-04T01:36:57.302Z,48
2023-04-04T01:37:28.841Z,50
2023-04-04T01:38:01.129Z,49
2023-04-04T01:38:32.723Z,49
2023-04-04T01:39:04.949Z,48
2023-04-04T01:39:37.829Z,48
2023-04-04T01:40:09.197Z,48
2023-04-04T01:40:36.006Z,50
2023-04-04T01:40:57.690Z,50
2023-04-04T01:41:28.810Z,51
2023-04-04T01:42:00.734Z,50
2023-04-04T01:42:32.735Z,49
2023-04-04T01:43:05.818Z,47
2023-04-04T01:43:36.857Z,47
2023-04-04T01:44:08.756Z,45
2023-04-04T01:44:35.992Z,45
2023-04-04T01:44:56.889Z,44
2023-04-04T01:45:30.183Z,44
2023-04-04T01:46:00.704Z,42
2023-04-04T01:46:32.739Z,44
2023-04-04T01:47:04.860Z,43
2023-04-04T01:47:37.193Z,42
2023-04-04T01:48:08.820Z,42
2023-04-04T01:48:36.021Z,41
2023-04-04T01:48:57.082Z,41
2023-04-04T01:49:28.595Z,41
2023-04-04T01:50:01.753Z,41
2023-04-04T01:50:32.545Z,40
2023-04-04T01:51:04.814Z,39
2023-04-04T01:51:36.904Z,38
2023-04-04T01:52:08.808Z,38
2023-04-04T01:52:36.418Z,38
2023-04-04T01:52:56.949Z,38
2023-04-04T01:53:28.689Z,37
2023-04-04T01:54:00.690Z,37
2023-04-04T01:54:32.632Z,37
2023-04-04T01:55:05.936Z,37
2023-04-04T01:55:37.368Z,37
2023-04-04T01:56:08.963Z,37
2023-04-04T01:56:35.900Z,36
2023-04-04T01:56:57.123Z,36
2023-04-04T01:57:28.798Z,35
2023-04-04T01:58:00.794Z,34
2023-04-04T01:58:32.736Z,35
2023-04-04T01:59:04.892Z,35
2023-04-04T01:59:36.903Z,35
2023-04-04T02:00:09.668Z,35
2023-04-04T02:00:36.040Z,35
2023-04-04T02:00:57.779Z,35
2023-04-04T02:01:28.772Z,36
2023-04-04T02:02:00.997Z,37
2023-04-04T02:02:33.113Z,36
2023-04-04T02:03:05.025Z,38
2023-04-04T02:03:36.855Z,38
2023-04-04T02:04:08.831Z,39
2023-04-04T02:04:36.001Z,40
2023-04-04T02:04:56.703Z,40
2023-04-04T02:05:29.038Z,39
2023-04-04T02:06:01.116Z,40
2023-04-04T02:06:32.741Z,40
2023-04-04T02:07:04.844Z,39
2023-04-04T02:07:36.950Z,40
2023-04-04T02:08:08.788Z,40
2023-04-04T02:08:36.294Z,40
2023-04-04T02:08:56.905Z,39
2023-04-04T02:09:28.688Z,39
2023-04-04T02:10:01.700Z,38
2023-04-04T02:10:32.685Z,38
2023-04-04T02:11:04.758Z,37
2023-04-04T02:11:36.923Z,36
2023-04-04T02:12:09.083Z,35
2023-04-04T02:12:36.258Z,34
2023-04-04T02:12:57.083Z,33
2023-04-04T02:13:28.698Z,32
2023-04-04T02:14:00.854Z,32
2023-04-04T02:14:32.750Z,31
2023-04-04T02:15:07.127Z,30
2023-04-04T02:15:37.092Z,30
2023-04-04T02:16:08.936Z,29
2023-04-04T02:16:36.096Z,30
2023-04-04T02:16:56.815Z,30
2023-04-04T02:17:28.775Z,30
2023-04-04T02:18:02.180Z,30
2023-04-04T02:18:32.678Z,31
2023-04-04T02:19:05.143Z,32
2023-04-04T02:19:36.840Z,33
2023-04-04T02:20:09.267Z,32
2023-04-04T02:20:36.210Z,32
2023-04-04T02:20:57.263Z,33
2023-04-04T02:21:28.658Z,33
2023-04-04T02:22:00.629Z,34
2023-04-04T02:22:33.112Z,36
2023-04-04T02:23:04.863Z,36
2023-04-04T02:23:36.918Z,38
2023-04-04T02:24:08.920Z,38
2023-04-04T02:24:35.883Z,38
2023-04-04T02:24:56.930Z,38
2023-04-04T02:25:29.111Z,39
2023-04-04T02:26:00.704Z,40
2023-04-04T02:26:32.690Z,40
2023-04-04T02:27:04.713Z,40
2023-04-04T02:27:36.826Z,39
2023-04-04T02:28:09.223Z,40
2023-04-04T02:28:35.926Z,39
2023-04-04T02:28:57.005Z,39
2023-04-04T02:29:28.658Z,38
2023-04-04T02:30:02.028Z,39
2023-04-04T02:30:32.722Z,41
2023-04-04T02:31:04.781Z,40
2023-04-04T02:31:37.820Z,40
2023-04-04T02:32:08.886Z,39
2023-04-04T02:32:36.236Z,38
2023-04-04T02:32:57.158Z,38
2023-04-04T02:33:28.773Z,37
2023-04-04T02:34:00.736Z,37
2023-04-04T02:34:32.810Z,38
2023-04-04T02:35:06.070Z,39
2023-04-04T02:35:37.079Z,41
2023-04-04T02:36:09.150Z,41
2023-04-04T02:36:35.874Z,40
2023-04-04T02:36:56.903Z,40
2023-04-04T02:37:28.729Z,41
2023-04-04T02:38:00.703Z,41
2023-04-04T02:38:32.745Z,41
2023-04-04T02:39:04.750Z,42
2023-04-04T02:39:37.145Z,42
2023-04-04T02:40:09.190Z,43
2023-04-04T02:40:35.932Z,42
2023-04-04T02:40:57.253Z,42
2023-04-04T02:41:28.795Z,42
2023-04-04T02:42:00.748Z,44
2023-04-04T02:42:33.022Z,44
2023-04-04T02:43:04.912Z,45
2023-04-04T02:43:38.466Z,44
2023-04-04T02:44:08.746Z,44
2023-04-04T02:44:36.017Z,43
2023-04-04T02:44:56.868Z,42
2023-04-04T02:45:29.729Z,40
2023-04-04T02:46:07.788Z,40
2023-04-04T02:46:32.819Z,41
2023-04-04T02:47:04.925Z,40
2023-04-04T02:47:37.375Z,41
2023-04-04T02:48:08.803Z,41
2023-04-04T02:48:35.916Z,41
2023-04-04T02:48:56.887Z,40
2023-04-04T02:49:28.659Z,40
2023-04-04T02:50:01.624Z,39
2023-04-04T02:50:33.020Z,39
2023-04-04T02:51:04.873Z,39
2023-04-04T02:51:36.978Z,39
2023-04-04T02:52:08.848Z,39
2023-04-04T02:52:36.076Z,38
2023-04-04T02:52:56.781Z,38
2023-04-04T02:53:28.791Z,39
2023-04-04T02:54:00.732Z,39
2023-04-04T02:54:32.779Z,39
2023-04-04T02:55:06.144Z,39
2023-04-04T02:55:36.974Z,39
2023-04-04T02:56:08.814Z,40
2023-04-04T02:56:36.053Z,40
2023-04-04T02:56:56.833Z,41
2023-04-04T02:57:28.790Z,40
2023-04-04T02:58:00.871Z,40
2023-04-04T02:58:32.832Z,40
2023-04-04T02:59:05.157Z,40
2023-04-04T02:59:36.849Z,40
2023-04-04T03:00:09.848Z,42
2023-04-04T03:00:35.899Z,42
2023-04-04T03:00:57.283Z,41
2023-04-04T03:01:28.859Z,42
2023-04-04T03:02:00.780Z,41
2023-04-04T03:02:33.064Z,41
2023-04-04T03:03:05.167Z,41
2023-04-04T03:03:36.997Z,41
2023-04-04T03:04:09.241Z,41
2023-04-04T03:04:36.151Z,41
2023-04-04T03:04:56.872Z,42
2023-04-04T03:05:29.206Z,42
2023-04-04T03:06:00.702Z,41
2023-04-04T03:06:32.827Z,42
2023-04-04T03:07:04.824Z,42
2023-04-04T03:07:37.066Z,42
2023-04-04T03:08:08.767Z,42
2023-04-04T03:08:36.271Z,43
2023-04-04T03:08:56.859Z,42
2023-04-04T03:09:28.900Z,43
2023-04-04T03:10:01.407Z,43
2023-04-04T03:10:32.791Z,42
2023-04-04T03:11:04.918Z,44
2023-04-04T03:11:36.996Z,44
2023-04-04T03:12:08.799Z,44
2023-04-04T03:12:35.969Z,44
2023-04-04T03:12:56.928Z,45
2023-04-04T03:13:28.722Z,45
2023-04-04T03:14:00.814Z,45
2023-04-04T03:14:33.612Z,46
2023-04-04T03:15:06.640Z,47
2023-04-04T03:15:37.033Z,48
2023-04-04T03:16:08.903Z,47
2023-04-04T03:16:36.063Z,47
2023-04-04T03:16:56.901Z,48
2023-04-04T03:17:29.139Z,47
2023-04-04T03:18:00.894Z,49
2023-04-04T03:18:33.323Z,48
2023-04-04T03:19:05.043Z,47
2023-04-04T03:19:37.201Z,48
2023-04-04T03:20:09.311Z,47
2023-04-04T03:20:36.081Z,47
2023-04-04T03:20:57.234Z,46
2023-04-04T03:21:28.773Z,45
2023-04-04T03:22:00.752Z,46
2023-04-04T03:22:32.941Z,46
2023-04-04T03:23:05.032Z,45
2023-04-04T03:23:36.913Z,45
2023-04-04T03:24:08.897Z,45
2023-04-04T03:24:37.184Z,44
2023-04-04T03:24:57.068Z,43
2023-04-04T03:25:29.199Z,43
2023-04-04T03:26:00.752Z,42
2023-04-04T03:26:33.344Z,42
2023-04-04T03:27:04.855Z,42
2023-04-04T03:27:37.102Z,43
2023-04-04T03:28:09.049Z,41
2023-04-04T03:28:36.539Z,42
2023-04-04T03:28:56.913Z,42
2023-04-04T03:29:28.722Z,42
2023-04-04T03:30:02.327Z,42
2023-04-04T03:30:33.499Z,41
2023-04-04T03:31:04.956Z,41
2023-04-04T03:31:37.139Z,42
2023-04-04T03:32:08.837Z,42
2023-04-04T03:32:36.759Z,42
2023-04-04T03:32:56.856Z,41
2023-04-04T03:33:28.784Z,41
2023-04-04T03:34:00.727Z,41
2023-04-04T03:34:32.725Z,41
2023-04-04T03:35:05.954Z,41
2023-04-04T03:35:38.584Z,40
2023-04-04T03:36:08.990Z,41
2023-04-04T03:36:36.278Z,41
2023-04-04T03:36:57.106Z,40
2023-04-04T03:37:28.941Z,40
2023-04-04T03:38:00.924Z,39
2023-04-04T03:38:32.798Z,40
2023-04-04T03:39:04.866Z,40
2023-04-04T03:39:37.416Z,39
2023-04-04T03:40:09.711Z,38
2023-04-04T03:40:36.266Z,39
2023-04-04T03:40:57.408Z,39
2023-04-04T03:41:28.750Z,40
2023-04-04T03:42:00.750Z,39
2023-04-04T03:42:32.810Z,40
2023-04-04T03:43:05.037Z,41
2023-04-04T03:43:37.185Z,41
2023-04-04T03:44:09.621Z,41
2023-04-04T03:44:36.180Z,42
2023-04-04T03:44:56.790Z,42
2023-04-04T03:45:29.816Z,41
2023-04-04T03:46:00.746Z,41
2023-04-04T03:46:34.760Z,40
2023-04-04T03:47:04.975Z,40
2023-04-04T03:47:36.940Z,40
2023-04-04T03:48:09.251Z,40
2023-04-04T03:48:36.064Z,40
2023-04-04T03:48:56.801Z,39
2023-04-04T03:49:28.867Z,41
2023-04-04T03:50:17.423Z,42
2023-04-04T03:50:38.785Z,41
2023-04-04T03:51:04.869Z,42
2023-04-04T03:51:37.491Z,40
2023-04-04T03:52:08.765Z,41
2023-04-04T03:52:35.953Z,40
2023-04-04T03:52:56.810Z,39
2023-04-04T03:53:28.780Z,39
2023-04-04T03:54:00.740Z,39
2023-04-04T03:54:32.825Z,39
2023-04-04T03:55:06.029Z,39
2023-04-04T03:55:37.177Z,41
2023-04-04T03:56:09.212Z,41
2023-04-04T03:56:35.960Z,42
2023-04-04T03:56:56.819Z,44
2023-04-04T03:57:28.764Z,44
2023-04-04T03:58:00.880Z,45
2023-04-04T03:58:32.720Z,44
2023-04-04T03:59:05.134Z,45
2023-04-04T03:59:36.915Z,44
2023-04-04T04:00:10.177Z,43
2023-04-04T04:00:36.513Z,42
2023-04-04T04:00:57.317Z,42
2023-04-04T04:01:28.900Z,43
2023-04-04T04:02:00.761Z,43
2023-04-04T04:02:32.858Z,43
2023-04-04T04:03:04.983Z,44
2023-04-04T04:03:36.970Z,44
2023-04-04T04:04:09.001Z,45
2023-04-04T04:04:36.899Z,44
2023-04-04T04:04:56.748Z,44
2023-04-04T04:05:29.331Z,44
2023-04-04T04:06:00.676Z,44
2023-04-04T04:06:33.281Z,43
2023-04-04T04:07:04.877Z,42
2023-04-04T04:07:37.618Z,43
2023-04-04T04:08:08.886Z,43
2023-04-04T04:08:35.954Z,44
2023-04-04T04:08:56.824Z,44
2023-04-04T04:09:28.996Z,44
2023-04-04T04:10:01.626Z,46
2023-04-04T04:10:32.855Z,47
2023-04-04T04:11:04.983Z,48
2023-04-04T04:11:36.928Z,48
2023-04-04T04:12:08.967Z,46
2023-04-04T04:12:35.944Z,46
2023-04-04T04:12:56.835Z,45
2023-04-04T04:13:28.801Z,44
2023-04-04T04:14:00.731Z,43
2023-04-04T04:14:32.809Z,43
2023-04-04T04:15:06.607Z,43
2023-04-04T04:15:37.054Z,43
2023-04-04T04:16:09.016Z,42
2023-04-04T04:16:36.140Z,42
2023-04-04T04:16:57.139Z,42
2023-04-04T04:17:29.084Z,41
2023-04-04T04:18:00.883Z,40
2023-04-04T04:18:33.000Z,39
2023-04-04T04:19:04.819Z,39
2023-04-04T04:19:37.451Z,39
2023-04-04T04:20:09.214Z,37
2023-04-04T04:20:35.930Z,35
2023-04-04T04:20:57.473Z,34
2023-04-04T04:21:28.719Z,34
2023-04-04T04:22:00.780Z,34
2023-04-04T04:22:32.741Z,35
2023-04-04T04:23:05.263Z,35
2023-04-04T04:23:37.040Z,36
2023-04-04T04:24:08.939Z,36
2023-04-04T04:24:35.900Z,36
2023-04-04T04:24:57.273Z,36
2023-04-04T04:25:29.309Z,37
2023-04-04T04:26:00.830Z,36
2023-04-04T04:26:33.003Z,36
2023-04-04T04:27:04.815Z,36
2023-04-04T04:27:37.007Z,38
2023-04-04T04:28:08.984Z,38
2023-04-04T04:28:36.144Z,39
2023-04-04T04:28:56.829Z,39
2023-04-04T04:29:30.077Z,38
2023-04-04T04:30:02.474Z,39
2023-04-04T04:30:33.132Z,39
2023-04-04T04:31:04.905Z,39
2023-04-04T04:31:37.198Z,39
2023-04-04T04:32:08.948Z,40
2023-04-04T04:32:36.015Z,40
2023-04-04T04:32:56.823Z,40
2023-04-04T04:33:28.839Z,40
2023-04-04T04:34:01.240Z,40
2023-04-04T04:34:33.157Z,40
2023-04-04T04:35:06.225Z,39
2023-04-04T04:35:37.057Z,39
2023-04-04T04:36:09.002Z,40
2023-04-04T04:36:36.031Z,41
2023-04-04T04:36:56.885Z,41
2023-04-04T04:37:28.796Z,40
2023-04-04T04:38:00.908Z,39
2023-04-04T04:38:32.872Z,38
2023-04-04T04:39:05.220Z,38
2023-04-04T04:39:37.045Z,38
2023-04-04T04:40:09.631Z,37
2023-04-04T04:40:36.267Z,37
2023-04-04T04:40:57.993Z,38
2023-04-04T04:41:28.943Z,38
2023-04-04T04:42:00.814Z,36
2023-04-04T04:42:33.416Z,36
2023-04-04T04:43:05.398Z,37
2023-04-04T04:43:37.559Z,38
2023-04-04T04:44:09.186Z,39
2023-04-04T04:44:36.654Z,39
2023-04-04T04:44:58.243Z,40
2023-04-04T04:45:29.926Z,40
2023-04-04T04:46:00.967Z,41
2023-04-04T04:46:33.234Z,41
2023-04-04T04:47:05.205Z,42
2023-04-04T04:47:37.303Z,42
2023-04-04T04:48:09.990Z,42
2023-04-04T04:48:36.934Z,43
2023-04-04T04:48:57.192Z,45
2023-04-04T04:49:29.196Z,45
2023-04-04T04:50:01.570Z,46
2023-04-04T04:50:33.088Z,47
2023-04-04T04:51:05.224Z,47
2023-04-04T04:51:37.230Z,47
2023-04-04T04:52:09.150Z,48
2023-04-04T04:52:37.094Z,48
2023-04-04T04:52:57.105Z,48
2023-04-04T04:53:29.414Z,48
2023-04-04T04:54:01.047Z,47
2023-04-04T04:54:33.268Z,47
2023-04-04T04:55:06.382Z,47
2023-04-04T04:55:37.527Z,47
2023-04-04T04:56:09.089Z,46
2023-04-04T04:56:36.265Z,45
2023-04-04T04:56:57.099Z,44
2023-04-04T04:57:29.214Z,45
2023-04-04T04:58:01.288Z,45
2023-04-04T04:58:33.447Z,44
2023-04-04T04:59:05.301Z,44
2023-04-04T04:59:37.328Z,44
2023-04-04T05:00:10.630Z,45
2023-04-04T05:00:36.416Z,46
2023-04-04T05:00:57.645Z,46
2023-04-04T05:01:29.211Z,47
2023-04-04T05:02:01.336Z,46
2023-04-04T05:02:33.152Z,47
2023-04-04T05:03:05.170Z,47
2023-04-04T05:03:37.282Z,47
2023-04-04T05:04:09.132Z,47
2023-04-04T05:04:36.256Z,46
2023-04-04T05:04:57.132Z,47
2023-04-04T05:05:29.669Z,47
2023-04-04T05:06:01.199Z,47
2023-04-04T05:06:33.434Z,47
2023-04-04T05:07:05.244Z,47
2023-04-04T05:07:37.334Z,47
2023-04-04T05:08:09.635Z,46
2023-04-04T05:08:36.737Z,47
2023-04-04T05:08:57.595Z,47
2023-04-04T05:09:29.176Z,46
2023-04-04T05:10:01.749Z,46
2023-04-04T05:10:33.105Z,45
2023-04-04T05:11:05.600Z,46
2023-04-04T05:11:37.398Z,46
2023-04-04T05:12:09.124Z,46
2023-04-04T05:12:36.534Z,46
2023-04-04T05:12:57.088Z,46
2023-04-04T05:13:29.165Z,47
2023-04-04T05:14:01.247Z,47
2023-04-04T05:14:33.725Z,48
2023-04-04T05:15:07.225Z,47
2023-04-04T05:15:37.303Z,48
2023-04-04T05:16:09.184Z,48
2023-04-04T05:16:36.284Z,48
2023-04-04T05:16:57.255Z,48
2023-04-04T05:17:29.245Z,48
2023-04-04T05:18:01.260Z,49
2023-04-04T05:18:33.145Z,49
2023-04-04T05:19:05.382Z,50
2023-04-04T05:19:37.262Z,50
2023-04-04T05:20:10.118Z,50
2023-04-04T05:20:37.216Z,50
2023-04-04T05:20:57.571Z,51
2023-04-04T05:21:29.282Z,49
2023-04-04T05:22:01.079Z,49
2023-04-04T05:22:32.996Z,47
2023-04-04T05:23:05.429Z,48
2023-04-04T05:23:37.263Z,48
2023-04-04T05:24:09.161Z,47
2023-04-04T05:24:36.709Z,47
2023-04-04T05:24:57.228Z,47
2023-04-04T05:25:29.650Z,46
2023-04-04T05:26:01.062Z,46
2023-04-04T05:26:33.054Z,45
2023-04-04T05:27:05.272Z,47
2023-04-04T05:27:37.324Z,48
2023-04-04T05:28:09.248Z,47
2023-04-04T05:28:36.374Z,46
2023-04-04T05:28:57.161Z,46
2023-04-04T05:29:29.204Z,45
2023-04-04T05:30:02.578Z,45
2023-04-04T05:30:33.106Z,44
2023-04-04T05:31:05.217Z,42
2023-04-04T05:31:37.268Z,43
2023-04-04T05:32:09.352Z,43
2023-04-04T05:32:36.381Z,43
2023-04-04T05:32:57.227Z,43
2023-04-04T05:33:29.124Z,42
2023-04-04T05:34:01.138Z,42
2023-04-04T05:34:32.982Z,41
2023-04-04T05:35:06.568Z,41
2023-04-04T05:35:38.698Z,40
2023-04-04T05:36:09.379Z,40
2023-04-04T05:36:36.581Z,42
2023-04-04T05:36:57.133Z,40
2023-04-04T05:37:29.243Z,39
2023-04-04T05:38:01.155Z,39
2023-04-04T05:38:33.144Z,38
2023-04-04T05:39:05.227Z,38
2023-04-04T05:39:37.353Z,38
2023-04-04T05:40:09.880Z,37
2023-04-04T05:40:36.490Z,37
2023-04-04T05:40:57.531Z,37
2023-04-04T05:41:29.607Z,36
2023-04-04T05:42:01.119Z,36
2023-04-04T05:42:33.036Z,36
2023-04-04T05:43:05.292Z,36
2023-04-04T05:43:37.221Z,36
2023-04-04T05:44:09.237Z,36
2023-04-04T05:44:36.545Z,35
2023-04-04T05:44:57.091Z,36
2023-04-04T05:45:31.684Z,36
2023-04-04T05:46:01.273Z,36
2023-04-04T05:46:33.531Z,34
2023-04-04T05:47:05.250Z,34
2023-04-04T05:47:37.574Z,35
2023-04-04T05:48:09.308Z,35
2023-04-04T05:48:36.534Z,35
2023-04-04T05:48:57.136Z,35
2023-04-04T05:49:29.260Z,34
2023-04-04T05:50:01.953Z,35
2023-04-04T05:50:34.125Z,35
2023-04-04T05:51:05.269Z,36
2023-04-04T05:51:37.529Z,37
2023-04-04T05:52:09.366Z,36
2023-04-04T05:52:36.347Z,37
2023-04-04T05:52:57.177Z,36
2023-04-04T05:53:29.126Z,36
2023-04-04T05:54:01.071Z,37
2023-04-04T05:54:33.212Z,37
2023-04-04T05:55:06.361Z,37
2023-04-04T05:55:37.557Z,37
2023-04-04T05:56:09.164Z,38
2023-04-04T05:56:36.833Z,38
2023-04-04T05:56:57.173Z,37
2023-04-04T05:57:29.135Z,37
2023-04-04T05:58:01.130Z,38
2023-04-04T05:58:33.023Z,38
2023-04-04T05:59:05.363Z,38
2023-04-04T05:59:37.989Z,39
2023-04-04T06:00:10.364Z,38
2023-04-04T06:00:36.784Z,38
2023-04-04T06:00:57.909Z,39
2023-04-04T06:01:29.213Z,39
2023-04-04T06:02:01.134Z,40
2023-04-04T06:02:33.135Z,40
2023-04-04T06:03:05.281Z,41
2023-04-04T06:03:38.217Z,42
2023-04-04T06:04:09.160Z,42
2023-04-04T06:04:36.757Z,42
2023-04-04T06:04:57.003Z,42
2023-04-04T06:05:29.556Z,41
2023-04-04T06:06:01.017Z,42
2023-04-04T06:06:33.085Z,43
2023-04-04T06:07:05.166Z,45
2023-04-04T06:07:37.323Z,46
2023-04-04T06:08:09.210Z,45
2023-04-04T06:08:50.255Z,46
2023-04-04T06:08:57.143Z,45
2023-04-04T06:09:29.268Z,45
2023-04-04T06:10:02.389Z,46
2023-04-04T06:10:33.092Z,46
2023-04-04T06:11:05.217Z,46
2023-04-04T06:11:37.632Z,47
2023-04-04T06:12:09.429Z,48
2023-04-04T06:12:36.361Z,48
2023-04-04T06:12:57.132Z,48
2023-04-04T06:13:29.114Z,50
2023-04-04T06:14:01.159Z,50
2023-04-04T06:14:33.111Z,49
2023-04-04T06:15:07.108Z,49
2023-04-04T06:15:37.341Z,48
2023-04-04T06:16:09.561Z,48
2023-04-04T06:16:36.410Z,46
2023-04-04T06:16:57.203Z,44
2023-04-04T06:17:29.138Z,43
2023-04-04T06:18:01.274Z,43
2023-04-04T06:18:33.090Z,43
2023-04-04T06:19:05.263Z,43
2023-04-04T06:19:37.205Z,42
2023-04-04T06:20:09.691Z,42
2023-04-04T06:20:36.348Z,42
2023-04-04T06:20:57.552Z,41
2023-04-04T06:21:29.099Z,41
2023-04-04T06:22:01.183Z,41
2023-04-04T06:22:33.090Z,41
2023-04-04T06:23:05.290Z,39
2023-04-04T06:23:37.858Z,38
2023-04-04T06:24:09.296Z,38
2023-04-04T06:24:37.542Z,38
2023-04-04T06:24:57.169Z,39
2023-04-04T06:25:29.614Z,40
2023-04-04T06:26:01.113Z,40
2023-04-04T06:26:33.312Z,40
2023-04-04T06:27:05.348Z,41
2023-04-04T06:27:37.313Z,42
2023-04-04T06:28:09.303Z,42
2023-04-04T06:28:36.734Z,42
2023-04-04T06:28:57.064Z,42
2023-04-04T06:29:29.213Z,42
2023-04-04T06:30:03.038Z,41
2023-04-04T06:30:33.298Z,41
2023-04-04T06:31:05.284Z,41
2023-04-04T06:31:37.702Z,40
2023-04-04T06:32:09.542Z,39
2023-04-04T06:32:36.382Z,38
2023-04-04T06:32:57.109Z,40
2023-04-04T06:33:29.106Z,40
2023-04-04T06:34:01.039Z,39
2023-04-04T06:34:33.470Z,40
2023-04-04T06:35:06.467Z,40
2023-04-04T06:35:37.730Z,41
2023-04-04T06:36:09.255Z,42
2023-04-04T06:36:36.521Z,42
2023-04-04T06:36:57.334Z,41
2023-04-04T06:37:29.164Z,41
2023-04-04T06:38:01.527Z,42
2023-04-04T06:38:33.211Z,43
2023-04-04T06:39:05.351Z,43
2023-04-04T06:39:37.450Z,45
2023-04-04T06:40:09.680Z,45
2023-04-04T06:40:36.675Z,46
2023-04-04T06:40:57.718Z,47
2023-04-04T06:41:29.254Z,47
2023-04-04T06:42:01.113Z,46
2023-04-04T06:42:33.553Z,47
2023-04-04T06:43:05.204Z,46
2023-04-04T06:43:37.683Z,45
2023-04-04T06:44:09.280Z,46
2023-04-04T06:44:36.308Z,45
2023-04-04T06:44:57.243Z,43
2023-04-04T06:45:30.201Z,44
2023-04-04T06:46:01.041Z,44
2023-04-04T06:46:33.574Z,44
2023-04-04T06:47:05.365Z,44
2023-04-04T06:47:37.588Z,42
2023-04-04T06:48:09.348Z,42
2023-04-04T06:48:36.515Z,41
2023-04-04T06:48:57.608Z,40
2023-04-04T06:49:29.434Z,38
2023-04-04T06:50:02.157Z,38
2023-04-04T06:50:33.480Z,38
2023-04-04T06:51:05.585Z,37
2023-04-04T06:51:37.682Z,37
2023-04-04T06:52:09.484Z,37
2023-04-04T06:52:39.108Z,38
2023-04-04T06:52:57.933Z,39
2023-04-04T06:53:29.455Z,40
2023-04-04T06:54:01.425Z,40
2023-04-04T06:54:33.336Z,40
2023-04-04T06:55:06.618Z,40
2023-04-04T06:55:37.621Z,39
2023-04-04T06:56:09.580Z,38
2023-04-04T06:56:36.505Z,38
2023-04-04T06:56:57.406Z,40
2023-04-04T06:57:29.429Z,40
2023-04-04T06:58:02.002Z,40
2023-04-04T06:58:33.394Z,41
2023-04-04T06:59:05.538Z,43
2023-04-04T06:59:37.492Z,44
2023-04-04T07:00:10.632Z,44
2023-04-04T07:00:36.861Z,43
2023-04-04T07:00:57.755Z,42
2023-04-04T07:01:29.335Z,41
2023-04-04T07:02:01.815Z,41
2023-04-04T07:02:33.667Z,42
2023-04-04T07:03:05.783Z,43
2023-04-04T07:03:37.510Z,43
2023-04-04T07:04:09.282Z,43
2023-04-04T07:04:36.547Z,43
2023-04-04T07:04:57.149Z,44
2023-04-04T07:05:29.679Z,45
2023-04-04T07:06:01.320Z,45
2023-04-04T07:06:33.386Z,45
2023-04-04T07:07:06.025Z,44
2023-04-04T07:07:37.528Z,45